Главная страница
METAR-TAF:

METAR-TAF

Аэропорты :

Алтуна, Пенсильвания, США

широта: 40-18-00N, долгота: 078-19-01W, высота над уровнем моря: 458 м

Текущие метеонаблюдения

Эта сводка был подготовлена 52 минут назад, в 20:53 UTC
Ветер 10 Узел от западно-северо-западный
Температура 8°C
Влажность 76%
Давление 1012 hPa
Видимость: 16.1 км
Рассеянная облачность на высоте 2000 фута
Рассеянная облачность на высоте 3000 фута
Сплошная облачность на высоте 3700 фута
небольшой дождь

METAR: KAOO 072053Z AUTO 29010KT 10SM -RA BKN020 BKN030 OVC037 08/04 A2987 RMK AO2 SLP123 P0002 60011 T00780044 53004

Время: 17:45 (21:45 UTC)

Прогноз

Эта сводка был подготовлена 28 минут назад, в 21:17 UTC
Прогноз действительный с 07-го 21 UTC до 08-го 18 UTC
Ветер 6 Узел от южный
Видимость: 10 км
Сплошная облачность на высоте 2500 фута
небольшой дождь
С 08-го 0100 UTC
Ветер 7 Узел от западный
Видимость: 10 км
Рассеянная облачность на высоте 3500 фута

TAF: KAOO 072117Z 0721/0818 19006KT P6SM -RA OVC025 FM080100 27007KT P6SM BKN035

Метеонаблюдения и прогнозы для более 4000 аэропортов (сводки METAR и TAF).

Имеющиеся станции представлены на карте желтыми и красными точками.

Чтобы увидеть название станции, наведите на нее мышь.

Затем щелкните, чтобы увидеть метеонаблюдения и метеопрогнозы.

Управление картой: чтобы увеличить масштаб, щелкните зеленые кнопки с черным крестиком; чтобы уменьшить масштаб, щелкните зеленую кнопку с тире; для просмотра соседних карт щелкайте зеленые стрелки.


METAR-TAF: